createdAt,value
2022-08-29T00:02:00.028Z,99273.84
2022-08-29T00:04:27.272Z,99288.06
2022-08-29T00:06:54.316Z,99295.09
2022-08-29T00:09:20.736Z,99285.38
2022-08-29T00:11:47.172Z,99275.75
2022-08-29T00:14:20.999Z,99274.97
2022-08-29T00:16:50.057Z,99273.16
2022-08-29T00:19:17.987Z,99268.66
2022-08-29T00:21:44.745Z,99271.38
2022-08-29T00:24:13.872Z,99275.00
2022-08-29T00:26:42.141Z,99280.25
2022-08-29T00:29:08.646Z,99268.75
2022-08-29T00:31:36.826Z,99274.94
2022-08-29T00:34:03.907Z,99274.03
2022-08-29T00:36:30.624Z,99267.88
2022-08-29T00:39:01.125Z,99274.19
2022-08-29T00:41:29.306Z,99269.84
2022-08-29T00:43:55.714Z,99277.81
2022-08-29T00:46:22.105Z,99282.38
2022-08-29T00:48:57.091Z,99286.75
2022-08-29T00:51:23.871Z,99288.63
2022-08-29T00:53:57.817Z,99283.28
2022-08-29T00:56:24.611Z,99278.78
2022-08-29T00:58:56.120Z,99277.88
2022-08-29T01:01:23.286Z,99277.00
2022-08-29T01:03:51.053Z,99280.59
2022-08-29T01:06:20.894Z,99279.78
2022-08-29T01:08:47.913Z,99282.38
2022-08-29T01:11:34.368Z,99285.03
2022-08-29T01:14:01.281Z,99277.91
2022-08-29T01:16:28.436Z,99284.09
2022-08-29T01:18:58.039Z,99277.91
2022-08-29T01:21:50.677Z,99276.06
2022-08-29T01:24:35.693Z,99283.09
2022-08-29T01:27:05.693Z,99277.00
2022-08-29T01:29:32.110Z,99282.38
2022-08-29T01:31:58.637Z,99292.28
2022-08-29T01:34:27.021Z,99290.53
2022-08-29T01:36:55.546Z,99297.75
2022-08-29T01:39:23.421Z,99296.91
2022-08-29T01:41:50.229Z,99302.97
2022-08-29T01:44:22.398Z,99293.16
2022-08-29T01:46:50.095Z,99298.50
2022-08-29T01:49:18.921Z,99288.81
2022-08-29T01:51:45.757Z,99295.03
2022-08-29T01:54:12.305Z,99290.69
2022-08-29T01:56:43.320Z,99288.97
2022-08-29T01:59:11.503Z,99288.88
2022-08-29T02:01:39.271Z,99288.97
2022-08-29T02:04:07.351Z,99285.38
2022-08-29T02:06:33.888Z,99285.31
2022-08-29T02:09:01.104Z,99291.63
2022-08-29T02:11:27.813Z,99289.88
2022-08-29T02:13:55.511Z,99286.31
2022-08-29T02:16:23.479Z,99288.97
2022-08-29T02:18:53.343Z,99286.34
2022-08-29T02:21:21.034Z,99287.31
2022-08-29T02:23:53.493Z,99281.09
2022-08-29T02:26:21.492Z,99288.22
2022-08-29T02:28:50.432Z,99281.09
2022-08-29T02:31:17.646Z,99279.28
2022-08-29T02:33:46.963Z,99275.72
2022-08-29T02:36:13.672Z,99286.41
2022-08-29T02:38:40.458Z,99279.41
2022-08-29T02:41:11.231Z,99281.97
2022-08-29T02:43:40.075Z,99281.09
2022-08-29T02:46:06.964Z,99288.22
2022-08-29T02:48:34.594Z,99284.63
2022-08-29T02:51:01.033Z,99281.09
2022-08-29T02:53:31.103Z,99280.22
2022-08-29T02:55:57.577Z,99290.84
2022-08-29T02:58:24.818Z,99290.00
2022-08-29T03:00:52.013Z,99282.06
2022-08-29T03:03:18.929Z,99276.75
2022-08-29T03:05:45.332Z,99285.69
2022-08-29T03:08:14.238Z,99290.09
2022-08-29T03:10:41.241Z,99290.97
2022-08-29T03:13:07.671Z,99286.47
2022-08-29T03:15:34.149Z,99293.63
2022-08-29T03:18:01.284Z,99290.91
2022-08-29T03:20:27.739Z,99282.97
2022-08-29T03:22:54.840Z,99287.47
2022-08-29T03:25:22.517Z,99300.81
2022-08-29T03:27:48.953Z,99291.09
2022-08-29T03:30:16.252Z,99292.06
2022-08-29T03:32:43.507Z,99291.16
2022-08-29T03:35:11.214Z,99282.28
2022-08-29T03:37:37.890Z,99288.41
2022-08-29T03:40:05.615Z,99285.88
2022-08-29T03:42:32.205Z,99282.31
2022-08-29T03:44:58.636Z,99278.69
2022-08-29T03:47:25.169Z,99282.25
2022-08-29T03:49:51.610Z,99273.41
2022-08-29T03:52:17.989Z,99280.53
2022-08-29T03:54:44.498Z,99281.38
2022-08-29T03:57:11.853Z,99279.59
2022-08-29T03:59:39.034Z,99288.50
2022-08-29T04:02:05.841Z,99284.97
2022-08-29T04:04:50.961Z,99288.44
2022-08-29T04:07:17.697Z,99289.34
2022-08-29T04:09:44.510Z,99301.75
2022-08-29T04:12:11.713Z,99295.56
2022-08-29T04:14:38.755Z,99294.63
2022-08-29T04:17:05.606Z,99292.84
2022-08-29T04:19:32.784Z,99291.97
2022-08-29T04:22:01.609Z,99283.97
2022-08-29T04:24:30.946Z,99287.47
2022-08-29T04:26:57.480Z,99286.50
2022-08-29T04:29:23.973Z,99288.22
2022-08-29T04:31:52.005Z,99291.72
2022-08-29T04:34:21.477Z,99285.59
2022-08-29T04:36:48.281Z,99290.00
2022-08-29T04:39:15.222Z,99291.69
2022-08-29T04:41:42.175Z,99293.34
2022-08-29T04:44:09.770Z,99298.69
2022-08-29T04:46:36.301Z,99303.09
2022-08-29T04:49:06.034Z,99290.69
2022-08-29T04:51:42.170Z,99283.53
2022-08-29T04:54:14.340Z,99283.56
2022-08-29T04:56:45.308Z,99282.66
2022-08-29T04:59:14.232Z,99287.03
2022-08-29T05:01:42.500Z,99295.06
2022-08-29T05:04:14.538Z,99288.81
2022-08-29T05:06:41.380Z,99293.09
2022-08-29T05:09:07.789Z,99290.38
2022-08-29T05:11:34.503Z,99293.03
2022-08-29T05:14:01.263Z,99292.97
2022-08-29T05:16:31.868Z,99296.47
2022-08-29T05:18:59.438Z,99297.38
2022-08-29T05:21:27.575Z,99293.81
2022-08-29T05:23:56.422Z,99298.97
2022-08-29T05:26:23.529Z,99301.53
2022-08-29T05:28:49.949Z,99301.50
2022-08-29T05:31:22.619Z,99300.59
2022-08-29T05:33:49.673Z,99302.34
2022-08-29T05:36:16.141Z,99305.81
2022-08-29T05:38:42.567Z,99305.72
2022-08-29T05:41:08.953Z,99296.84
2022-08-29T05:43:38.165Z,99303.03
2022-08-29T05:46:06.139Z,99303.84
2022-08-29T05:48:36.529Z,99317.97
2022-08-29T05:51:05.823Z,99317.91
2022-08-29T05:53:34.656Z,99319.63
2022-08-29T05:56:01.082Z,99318.66
2022-08-29T05:58:28.435Z,99324.00
2022-08-29T06:00:54.814Z,99322.09
2022-08-29T06:03:24.047Z,99313.97
2022-08-29T06:05:51.686Z,99318.31
2022-08-29T06:08:18.694Z,99320.03
2022-08-29T06:10:51.817Z,99315.56
2022-08-29T06:13:18.300Z,99316.28
2022-08-29T06:15:45.554Z,99302.72
2022-08-29T06:18:12.128Z,99310.63
2022-08-29T06:20:39.546Z,99301.69
2022-08-29T06:23:06.226Z,99307.84
2022-08-29T06:25:39.927Z,99302.50
2022-08-29T06:28:10.314Z,99310.41
2022-08-29T06:30:37.139Z,99312.91
2022-08-29T06:33:03.692Z,99318.19
2022-08-29T06:35:30.127Z,99320.78
2022-08-29T06:37:59.846Z,99329.59
2022-08-29T06:40:27.403Z,99333.06
2022-08-29T06:42:53.909Z,99326.66
2022-08-29T06:45:20.303Z,99331.19
2022-08-29T06:47:50.107Z,99333.97
2022-08-29T06:50:17.221Z,99329.38
2022-08-29T06:52:44.064Z,99333.72
2022-08-29T06:55:13.674Z,99338.28
2022-08-29T06:57:45.968Z,99337.59
2022-08-29T07:00:22.402Z,99339.38
2022-08-29T07:02:51.710Z,99343.84
2022-08-29T07:05:19.671Z,99350.94
2022-08-29T07:07:46.107Z,99353.63
2022-08-29T07:10:22.073Z,99353.63
2022-08-29T07:12:49.703Z,99358.06
2022-08-29T07:15:19.750Z,99358.06
2022-08-29T07:17:46.284Z,99358.03
2022-08-29T07:20:13.510Z,99358.06
2022-08-29T07:22:44.449Z,99366.13
2022-08-29T07:25:14.513Z,99355.50
2022-08-29T07:27:40.969Z,99359.88
2022-08-29T07:30:07.626Z,99352.66
2022-08-29T07:32:34.042Z,99353.44
2022-08-29T07:35:00.579Z,99361.22
2022-08-29T07:37:27.056Z,99356.75
2022-08-29T07:39:56.664Z,99353.94
2022-08-29T07:42:23.346Z,99354.66
2022-08-29T07:44:52.443Z,99346.50
2022-08-29T07:47:18.833Z,99349.16
2022-08-29T07:49:45.351Z,99350.94
2022-08-29T07:52:16.754Z,99356.28
2022-08-29T07:54:43.201Z,99363.41
2022-08-29T07:57:09.603Z,99360.06
2022-08-29T07:59:36.203Z,99365.38
2022-08-29T08:02:03.734Z,99368.00
2022-08-29T08:04:32.979Z,99373.31
2022-08-29T08:06:59.374Z,99372.34
2022-08-29T08:09:25.854Z,99376.75
2022-08-29T08:11:52.296Z,99378.28
2022-08-29T08:14:18.792Z,99375.28
2022-08-29T08:16:45.457Z,99377.81
2022-08-29T08:19:13.150Z,99381.09
2022-08-29T08:21:49.204Z,99381.84
2022-08-29T08:24:19.358Z,99387.22
2022-08-29T08:26:46.277Z,99387.06
2022-08-29T08:29:16.415Z,99383.34
2022-08-29T08:31:46.959Z,99385.56
2022-08-29T08:34:16.463Z,99388.13
2022-08-29T08:36:44.729Z,99388.53
2022-08-29T08:39:11.948Z,99385.00
2022-08-29T08:41:44.627Z,99382.44
2022-08-29T08:44:15.863Z,99382.50
2022-08-29T08:46:44.258Z,99382.47
2022-08-29T08:49:14.361Z,99388.69
2022-08-29T08:51:43.745Z,99390.25
2022-08-29T08:54:15.001Z,99393.63
2022-08-29T08:56:46.831Z,99395.13
2022-08-29T08:59:17.109Z,99395.56
2022-08-29T09:01:47.357Z,99395.25
2022-08-29T09:04:25.445Z,99389.72
2022-08-29T09:06:59.757Z,99390.66
2022-08-29T09:09:35.284Z,99386.75
2022-08-29T09:12:23.265Z,99392.97
2022-08-29T09:14:53.201Z,99390.03
2022-08-29T09:17:23.464Z,99391.06
2022-08-29T09:19:53.884Z,99384.97
2022-08-29T09:22:23.770Z,99375.78
2022-08-29T09:24:53.747Z,99381.88
2022-08-29T09:27:22.061Z,99379.38
2022-08-29T09:29:49.770Z,99386.84
2022-08-29T09:32:22.322Z,99389.53
2022-08-29T09:37:35.612Z,99381.22
2022-08-29T09:40:09.205Z,99372.63
2022-08-29T09:42:37.172Z,99380.72
2022-08-29T09:45:25.089Z,99380.72
2022-08-29T09:48:10.274Z,99375.38
2022-08-29T09:50:37.017Z,99379.56
2022-08-29T09:53:09.770Z,99383.94
2022-08-29T09:55:50.661Z,99397.16
2022-08-29T09:58:18.403Z,99382.78
2022-08-29T10:00:59.190Z,99385.84
2022-08-29T10:03:26.844Z,99388.56
2022-08-29T10:06:07.855Z,99395.53
2022-08-29T10:08:36.475Z,99390.47
2022-08-29T10:11:05.906Z,99391.97
2022-08-29T10:13:46.084Z,99381.53
2022-08-29T10:16:12.499Z,99378.09
2022-08-29T10:18:39.164Z,99376.38
2022-08-29T10:21:10.212Z,99385.69
2022-08-29T10:23:46.897Z,99386.09
2022-08-29T10:26:28.944Z,99388.31
2022-08-29T10:29:17.335Z,99395.50
2022-08-29T10:31:55.966Z,99396.34
2022-08-29T10:34:25.330Z,99394.91
2022-08-29T10:36:55.583Z,99393.41
2022-08-29T10:39:40.786Z,99391.31
2022-08-29T10:42:15.348Z,99392.19
2022-08-29T10:44:44.823Z,99380.81
2022-08-29T10:47:11.189Z,99389.28
2022-08-29T10:49:52.814Z,99385.84
2022-08-29T10:52:45.508Z,99388.41
2022-08-29T10:55:30.101Z,99385.25
2022-08-29T10:58:02.478Z,99385.94
2022-08-29T11:00:35.337Z,99387.59
2022-08-29T11:03:13.068Z,99386.22
2022-08-29T11:05:43.242Z,99384.66
2022-08-29T11:08:35.986Z,99381.63
2022-08-29T11:11:02.508Z,99384.84
2022-08-29T11:13:36.413Z,99386.91
2022-08-29T11:16:07.242Z,99384.44
2022-08-29T11:18:43.556Z,99377.13
2022-08-29T11:21:21.003Z,99379.34
2022-08-29T11:23:48.106Z,99382.78
2022-08-29T11:26:29.573Z,99376.66
2022-08-29T11:29:14.836Z,99373.72
2022-08-29T11:31:47.377Z,99381.69
2022-08-29T11:34:31.771Z,99381.38
2022-08-29T11:37:01.295Z,99389.63
2022-08-29T11:39:27.651Z,99389.16
2022-08-29T11:41:58.451Z,99380.91
2022-08-29T11:44:27.850Z,99380.97
2022-08-29T11:46:56.216Z,99377.28
2022-08-29T11:49:44.666Z,99383.50
2022-08-29T11:52:11.264Z,99374.25
2022-08-29T11:54:41.001Z,99383.75
2022-08-29T11:57:10.210Z,99378.69
2022-08-29T11:59:49.394Z,99388.69
2022-08-29T12:02:29.180Z,99373.84
2022-08-29T12:04:57.663Z,99381.00
2022-08-29T12:07:36.113Z,99376.75
2022-08-29T12:10:05.414Z,99376.09
2022-08-29T12:12:52.126Z,99379.09
2022-08-29T12:15:27.633Z,99376.09
2022-08-29T12:18:03.796Z,99382.69
2022-08-29T12:20:30.663Z,99372.13
2022-08-29T12:22:59.615Z,99367.47
2022-08-29T12:28:57.798Z,99370.38
2022-08-29T12:31:27.080Z,99361.19
2022-08-29T12:34:04.706Z,99372.72
2022-08-29T12:36:52.540Z,99366.31
2022-08-29T12:39:38.146Z,99369.59
2022-08-29T12:42:16.407Z,99368.13
2022-08-29T12:44:44.596Z,99369.00
2022-08-29T12:47:12.426Z,99361.66
2022-08-29T12:49:51.695Z,99362.19
2022-08-29T12:52:28.622Z,99362.59
2022-08-29T12:54:56.731Z,99369.41
2022-08-29T12:57:32.063Z,99357.84
2022-08-29T12:59:59.168Z,99354.88
2022-08-29T13:02:28.690Z,99350.13
2022-08-29T13:04:55.833Z,99346.13
2022-08-29T13:07:25.114Z,99343.81
2022-08-29T13:09:56.478Z,99344.63
2022-08-29T13:12:30.350Z,99341.47
2022-08-29T13:15:07.461Z,99341.63
2022-08-29T13:17:36.090Z,99342.00
2022-08-29T13:20:21.309Z,99343.91
2022-08-29T13:22:47.712Z,99340.19
2022-08-29T13:25:15.749Z,99343.28
2022-08-29T13:27:42.451Z,99340.75
2022-08-29T13:30:09.089Z,99337.22
2022-08-29T13:32:36.349Z,99336.34
2022-08-29T13:35:06.229Z,99328.84
2022-08-29T13:37:34.694Z,99320.31
2022-08-29T13:40:19.883Z,99327.63
2022-08-29T13:42:47.484Z,99329.69
2022-08-29T13:45:20.455Z,99327.88
2022-08-29T13:47:55.613Z,99320.69
2022-08-29T13:50:22.436Z,99319.56
2022-08-29T13:52:56.745Z,99319.66
2022-08-29T13:55:23.446Z,99306.38
2022-08-29T13:57:52.274Z,99313.06
2022-08-29T14:00:19.383Z,99305.47
2022-08-29T14:03:01.690Z,99304.06
2022-08-29T14:05:30.868Z,99304.13
2022-08-29T14:07:57.326Z,99299.13
2022-08-29T14:10:23.737Z,99297.03
2022-08-29T14:12:50.146Z,99292.44
2022-08-29T14:15:21.108Z,99285.84
2022-08-29T14:17:50.876Z,99286.50
2022-08-29T14:20:17.900Z,99290.06
2022-08-29T14:22:44.551Z,99291.88
2022-08-29T14:25:11.691Z,99284.69
2022-08-29T14:27:38.661Z,99288.25
2022-08-29T14:30:06.367Z,99286.31
2022-08-29T14:32:36.032Z,99283.16
2022-08-29T14:35:03.071Z,99292.28
2022-08-29T14:37:29.527Z,99287.44
2022-08-29T14:39:55.985Z,99278.84
2022-08-29T14:42:24.761Z,99276.94
2022-08-29T14:44:51.277Z,99279.44
2022-08-29T14:47:17.919Z,99278.72
2022-08-29T14:49:44.371Z,99272.56
2022-08-29T14:52:15.155Z,99278.59
2022-08-29T14:54:42.847Z,99279.28
2022-08-29T14:57:09.680Z,99282.09
2022-08-29T14:59:36.254Z,99273.31
2022-08-29T15:02:03.442Z,99267.06
2022-08-29T15:04:35.997Z,99273.06
2022-08-29T15:07:11.730Z,99268.34
2022-08-29T15:09:38.964Z,99264.63
2022-08-29T15:12:09.366Z,99266.13
2022-08-29T15:14:35.808Z,99268.72
2022-08-29T15:17:02.857Z,99256.28
2022-08-29T15:22:16.426Z,99258.84
2022-08-29T15:24:43.040Z,99262.44
2022-08-29T15:27:09.725Z,99256.16
2022-08-29T15:29:37.341Z,99258.59
2022-08-29T15:32:04.595Z,99264.06
2022-08-29T15:34:31.502Z,99260.22
2022-08-29T15:36:57.940Z,99250.88
2022-08-29T15:39:28.444Z,99259.34
2022-08-29T15:41:55.907Z,99259.72
2022-08-29T15:44:25.372Z,99261.75
2022-08-29T15:46:54.402Z,99254.88
2022-08-29T15:49:23.434Z,99254.88
2022-08-29T15:51:52.944Z,99250.06
2022-08-29T15:54:19.853Z,99248.16
2022-08-29T15:56:46.605Z,99251.88
2022-08-29T15:59:13.603Z,99251.00
2022-08-29T16:01:47.540Z,99241.97
2022-08-29T16:04:17.814Z,99243.59
2022-08-29T16:06:44.598Z,99247.94
2022-08-29T16:09:15.555Z,99245.25
2022-08-29T16:11:45.822Z,99244.31
2022-08-29T16:17:02.134Z,99243.28
2022-08-29T16:19:29.365Z,99244.38
2022-08-29T16:22:00.097Z,99246.44
2022-08-29T16:24:31.217Z,99243.09
2022-08-29T16:26:58.418Z,99245.19
2022-08-29T16:29:26.753Z,99240.13
2022-08-29T16:31:54.037Z,99241.34
2022-08-29T16:34:22.576Z,99244.97
2022-08-29T16:36:52.004Z,99239.66
2022-08-29T16:39:18.463Z,99244.91
2022-08-29T16:41:45.257Z,99238.66
2022-08-29T16:44:11.746Z,99238.41
2022-08-29T16:46:38.569Z,99235.56
2022-08-29T16:49:05.115Z,99237.13
2022-08-29T16:51:31.838Z,99229.94
2022-08-29T16:54:01.614Z,99229.06
2022-08-29T16:56:28.113Z,99230.06
2022-08-29T16:59:07.356Z,99235.50
2022-08-29T17:01:38.291Z,99238.47
2022-08-29T17:04:06.238Z,99238.78
2022-08-29T17:06:32.770Z,99233.59
2022-08-29T17:08:59.518Z,99236.41
2022-08-29T17:11:26.316Z,99230.97
2022-08-29T17:13:52.664Z,99236.41
2022-08-29T17:16:19.265Z,99233.88
2022-08-29T17:18:49.980Z,99244.78
2022-08-29T17:21:16.533Z,99242.38
2022-08-29T17:23:47.533Z,99243.59
2022-08-29T17:26:16.366Z,99250.03
2022-08-29T17:28:45.674Z,99235.94
2022-08-29T17:31:12.804Z,99241.50
2022-08-29T17:33:39.278Z,99242.56
2022-08-29T17:36:05.910Z,99241.09
2022-08-29T17:38:33.019Z,99250.22
2022-08-29T17:41:05.232Z,99239.69
2022-08-29T17:43:42.428Z,99247.06
2022-08-29T17:46:09.285Z,99243.69
2022-08-29T17:48:35.777Z,99234.03
2022-08-29T17:51:02.176Z,99242.31
2022-08-29T17:53:29.613Z,99247.69
2022-08-29T17:55:56.052Z,99242.44
2022-08-29T17:58:22.959Z,99244.41
2022-08-29T18:00:58.768Z,99241.72
2022-08-29T18:03:25.362Z,99247.91
2022-08-29T18:05:51.746Z,99251.50
2022-08-29T18:08:18.297Z,99254.28
2022-08-29T18:10:44.771Z,99248.38
2022-08-29T18:13:11.239Z,99239.78
2022-08-29T18:15:37.709Z,99241.69
2022-08-29T18:18:09.653Z,99247.72
2022-08-29T18:20:37.474Z,99253.09
2022-08-29T18:23:04.503Z,99255.66
2022-08-29T18:25:30.909Z,99256.47
2022-08-29T18:28:00.050Z,99264.56
2022-08-29T18:30:27.591Z,99266.41
2022-08-29T18:32:54.041Z,99263.72
2022-08-29T18:35:20.548Z,99263.72
2022-08-29T18:37:46.960Z,99272.88
2022-08-29T18:40:13.578Z,99266.78
2022-08-29T18:42:41.710Z,99257.03
2022-08-29T18:45:09.175Z,99263.34
2022-08-29T18:47:35.558Z,99264.09
2022-08-29T18:50:20.573Z,99261.56
2022-08-29T18:52:51.586Z,99270.72
2022-08-29T18:55:18.551Z,99270.81
2022-08-29T18:57:49.836Z,99268.28
2022-08-29T19:00:17.033Z,99271.97
2022-08-29T19:02:43.562Z,99276.56
2022-08-29T19:05:10.062Z,99279.13
2022-08-29T19:07:36.514Z,99279.13
2022-08-29T19:10:03.789Z,99282.78
2022-08-29T19:12:30.298Z,99278.41
2022-08-29T19:14:56.678Z,99287.44
2022-08-29T19:17:23.165Z,99282.09
2022-08-29T19:20:10.130Z,99290.97
2022-08-29T19:22:37.620Z,99293.78
2022-08-29T19:25:05.731Z,99293.13
2022-08-29T19:27:44.355Z,99295.88
2022-08-29T19:30:15.227Z,99295.97
2022-08-29T19:32:41.684Z,99297.81
2022-08-29T19:35:10.983Z,99300.56
2022-08-29T19:37:37.675Z,99300.66
2022-08-29T19:40:04.548Z,99301.56
2022-08-29T19:42:31.480Z,99303.47
2022-08-29T19:44:58.089Z,99304.50
2022-08-29T19:47:25.143Z,99301.03
2022-08-29T19:49:51.716Z,99303.81
2022-08-29T19:52:18.119Z,99301.28
2022-08-29T19:54:44.552Z,99300.34
2022-08-29T19:57:16.141Z,99303.97
2022-08-29T19:59:46.518Z,99307.75
2022-08-29T20:02:15.419Z,99305.16
2022-08-29T20:04:41.897Z,99311.44
2022-08-29T20:07:08.884Z,99308.81
2022-08-29T20:09:36.031Z,99303.41
2022-08-29T20:12:03.660Z,99305.34
2022-08-29T20:14:35.129Z,99305.34
2022-08-29T20:17:07.527Z,99303.66
2022-08-29T20:19:36.821Z,99302.81
2022-08-29T20:22:06.050Z,99309.06
2022-08-29T20:24:33.497Z,99325.75
2022-08-29T20:27:00.222Z,99324.13
2022-08-29T20:29:27.143Z,99327.81
2022-08-29T20:31:55.968Z,99323.72
2022-08-29T20:34:22.496Z,99332.69
2022-08-29T20:37:07.832Z,99325.50
2022-08-29T20:39:38.060Z,99327.19
2022-08-29T20:42:08.151Z,99338.63
2022-08-29T20:44:41.735Z,99340.19
2022-08-29T20:47:09.262Z,99348.19
2022-08-29T20:49:40.845Z,99360.56
2022-08-29T20:52:11.425Z,99355.09
2022-08-29T20:54:38.879Z,99363.09
2022-08-29T20:57:06.441Z,99364.00
2022-08-29T20:59:34.751Z,99377.38
2022-08-29T21:02:02.983Z,99375.72
2022-08-29T21:04:48.085Z,99374.88
2022-08-29T21:07:17.880Z,99389.19
2022-08-29T21:09:50.219Z,99385.72
2022-08-29T21:12:17.055Z,99383.84
2022-08-29T21:14:43.596Z,99386.53
2022-08-29T21:17:13.587Z,99376.66
2022-08-29T21:19:40.609Z,99387.44
2022-08-29T21:22:07.967Z,99384.03
2022-08-29T21:24:35.266Z,99393.06
2022-08-29T21:27:01.675Z,99393.00
2022-08-29T21:29:28.519Z,99388.63
2022-08-29T21:31:55.069Z,99393.00
2022-08-29T21:34:21.916Z,99390.50
2022-08-29T21:36:52.077Z,99395.16
2022-08-29T21:39:21.563Z,99390.81
2022-08-29T21:41:54.716Z,99385.53
2022-08-29T21:44:21.159Z,99381.06
2022-08-29T21:46:48.719Z,99386.38
2022-08-29T21:49:21.411Z,99382.00
2022-08-29T21:51:48.087Z,99382.25
2022-08-29T21:54:16.051Z,99381.22
2022-08-29T21:56:43.126Z,99386.53
2022-08-29T21:59:10.117Z,99387.38
2022-08-29T22:01:39.586Z,99398.69
2022-08-29T22:04:10.288Z,99390.59
2022-08-29T22:06:39.792Z,99388.94
2022-08-29T22:09:09.274Z,99394.53
2022-08-29T22:11:37.360Z,99386.72
2022-08-29T22:14:05.034Z,99386.16
2022-08-29T22:16:31.688Z,99387.09
2022-08-29T22:19:11.599Z,99385.28
2022-08-29T22:21:42.817Z,99378.00
2022-08-29T22:24:10.544Z,99378.84
2022-08-29T22:26:37.802Z,99371.94
2022-08-29T22:29:05.361Z,99371.41
2022-08-29T22:31:32.103Z,99369.81
2022-08-29T22:34:02.921Z,99369.84
2022-08-29T22:36:34.690Z,99368.84
2022-08-29T22:39:01.161Z,99368.72
2022-08-29T22:41:27.589Z,99365.00
2022-08-29T22:44:11.377Z,99362.53
2022-08-29T22:46:44.469Z,99372.63
2022-08-29T22:49:17.748Z,99375.16
2022-08-29T22:51:46.969Z,99382.09
2022-08-29T22:54:31.781Z,99382.34
2022-08-29T22:56:59.551Z,99383.56
2022-08-29T22:59:26.010Z,99382.03
2022-08-29T23:01:52.478Z,99376.47
2022-08-29T23:04:19.135Z,99370.06
2022-08-29T23:06:45.786Z,99376.31
2022-08-29T23:09:12.950Z,99375.41
2022-08-29T23:11:39.670Z,99377.31
2022-08-29T23:14:06.234Z,99369.22
2022-08-29T23:16:34.486Z,99372.09
2022-08-29T23:19:01.606Z,99376.88
2022-08-29T23:21:28.634Z,99376.09
2022-08-29T23:23:55.359Z,99374.16
2022-08-29T23:26:21.733Z,99369.53
2022-08-29T23:28:48.150Z,99374.22
2022-08-29T23:31:15.421Z,99379.84
2022-08-29T23:33:42.214Z,99378.97
2022-08-29T23:36:08.868Z,99378.88
2022-08-29T23:38:35.733Z,99380.69
2022-08-29T23:41:02.262Z,99385.34
2022-08-29T23:43:29.590Z,99377.25
2022-08-29T23:46:03.325Z,99378.38
2022-08-29T23:48:29.798Z,99379.28
2022-08-29T23:50:56.327Z,99380.00
2022-08-29T23:53:23.394Z,99371.81
2022-08-29T23:55:50.423Z,99373.59
2022-08-29T23:58:17.388Z,99373.66
